Terminal Aerodrome Forecast
Issued by NWS

Home | Current Version | Previous Version | Text Only | Print | Product List | Glossary On
Versions: 1 2 3 4 5 6 7 8 9 10 11 12 13 14
000
FTUS43 KDTX 270538
TAFPTK
TAF
KPTK 270538Z 2706/2806 28008KT P6SM BKN060
     FM270900 30007KT P6SM SKC
     FM271700 30012KT P6SM BKN045
     FM272300 27008KT P6SM SCT050=

USA.gov is the U.S. government's official web portal to all federal, state and local government web resources and services.